Time;durP1;ratioP1;P1;durP2;ratioP2;P2;SDS_P1;SDS_P2;PMS_P1;PMS_P2;Temp;Humidity;BMP_temperature;BMP_pressure;BME280_temperature;BME280_humidity;BME280_pressure;Samples;Min_cycle;Max_cycle;Signal;HPM_P1;HPM_P2
2022/02/15 00:00:40;;;;;;;3.07;2.23;;;;;;;8.30;78.95;98139.03;5055254;28;40331;-83
2022/02/15 00:03:08;;;;;;;2.97;2.37;;;;;;;8.42;78.71;98158.53;5056198;28;40771;-82
2022/02/15 00:05:35;;;;;;;3.10;2.37;;;;;;;8.40;78.89;98155.19;5071684;28;41802;-81
2022/02/15 00:08:04;;;;;;;4.60;2.63;;;;;;;8.39;79.11;98153.50;5055525;28;41424;-83
2022/02/15 00:10:31;;;;;;;5.47;2.53;;;;;;;8.34;79.19;98150.28;5072329;28;40842;-82
2022/02/15 00:13:03;;;;;;;2.43;2.10;;;;;;;8.40;79.46;98158.66;5055674;28;40506;-83
2022/02/15 00:15:31;;;;;;;5.10;2.63;;;;;;;8.42;79.54;98159.38;5071085;28;42693;-82
2022/02/15 00:17:59;;;;;;;2.60;1.93;;;;;;;8.47;79.14;98161.75;5072149;28;41152;-82
2022/02/15 00:20:27;;;;;;;2.23;1.70;;;;;;;8.51;78.99;98150.06;5072366;28;39585;-84
2022/02/15 00:22:54;;;;;;;3.47;2.43;;;;;;;8.54;78.74;98147.19;5071889;28;40466;-81
2022/02/15 00:25:22;;;;;;;2.77;2.20;;;;;;;8.54;78.16;98147.19;5071966;28;43191;-80
2022/02/15 00:27:50;;;;;;;2.80;2.20;;;;;;;8.57;78.18;98145.19;5055345;28;40866;-81
2022/02/15 00:30:20;;;;;;;2.77;2.20;;;;;;;8.57;77.99;98147.00;5071848;28;39749;-82
2022/02/15 00:32:48;;;;;;;2.97;2.20;;;;;;;8.59;77.78;98155.66;5071796;28;41763;-83
2022/02/15 00:35:16;;;;;;;3.90;2.43;;;;;;;8.60;77.32;98157.34;5071191;28;42799;-82
2022/02/15 00:37:44;;;;;;;3.37;2.47;;;;;;;8.61;77.70;98153.78;5055106;28;41208;-84
2022/02/15 00:40:13;;;;;;;4.43;2.40;;;;;;;8.61;77.61;98153.78;5055193;28;39205;-81
2022/02/15 00:42:41;;;;;;;2.90;2.30;;;;;;;8.60;77.95;98152.09;5055275;28;40381;-81
2022/02/15 00:45:10;;;;;;;3.90;2.77;;;;;;;8.59;77.94;98150.38;5054737;28;42628;-81
2022/02/15 00:47:39;;;;;;;4.73;2.27;;;;;;;8.59;77.92;98151.22;5072676;28;42050;-82
2022/02/15 00:50:07;;;;;;;3.47;2.57;;;;;;;8.47;78.18;98130.09;5071811;28;40149;-82
2022/02/15 00:52:35;;;;;;;4.87;2.67;;;;;;;8.44;77.99;98131.13;5072740;28;42156;-82
2022/02/15 00:55:04;;;;;;;4.33;2.80;;;;;;;8.50;77.95;98135.16;5071715;28;42813;-82
2022/02/15 00:57:32;;;;;;;3.53;3.00;;;;;;;8.61;78.04;98159.06;5072591;28;42250;-81
2022/02/15 01:00:00;;;;;;;2.97;2.10;;;;;;;8.61;77.80;98164.34;5054688;28;40716;-83
2022/02/15 01:02:28;;;;;;;2.33;1.77;;;;;;;8.62;77.64;98161.59;5054793;28;40666;-83
2022/02/15 01:04:57;;;;;;;3.43;2.50;;;;;;;8.62;77.60;98166.03;5053945;28;41708;-82
2022/02/15 01:07:24;;;;;;;3.33;2.03;;;;;;;8.56;77.63;98156.69;5071403;28;42071;-82
2022/02/15 01:09:52;;;;;;;4.00;3.20;;;;;;;8.55;77.83;98159.44;5054814;28;39021;-81
2022/02/15 01:12:20;;;;;;;3.57;2.80;;;;;;;8.51;77.90;98166.72;5054425;28;40764;-83
2022/02/15 01:14:47;;;;;;;3.20;2.77;;;;;;;8.55;77.79;98177.91;5054443;28;44596;-81
2022/02/15 01:17:15;;;;;;;3.73;2.63;;;;;;;8.54;78.20;98168.31;5071389;28;42661;-81
2022/02/15 01:19:45;;;;;;;5.20;2.70;;;;;;;8.40;77.96;98155.19;5071390;28;40912;-83
2022/02/15 09:10:24;;;;;;;3.83;2.70;;;;;;;8.27;89.27;98493.59;5109333;28;20566;-82
2022/02/15 09:12:52;;;;;;;2.93;2.10;;;;;;;8.76;87.18;98480.13;5108910;28;39032;-82
2022/02/15 09:15:20;;;;;;;3.03;2.33;;;;;;;9.33;83.59;98503.84;5108250;28;43448;-79
2022/02/15 09:17:47;;;;;;;2.77;2.10;;;;;;;9.73;80.62;98508.31;5108838;28;43961;-82
2022/02/15 09:20:15;;;;;;;2.43;2.20;;;;;;;9.99;78.65;98492.53;5091569;28;41082;-82
2022/02/15 09:22:42;;;;;;;2.60;2.27;;;;;;;10.34;76.16;98511.38;5108981;28;38600;-87
2022/02/15 09:25:10;;;;;;;3.03;2.17;;;;;;;10.66;75.46;98514.50;5090936;28;41975;-81
2022/02/15 09:27:39;;;;;;;3.60;2.90;;;;;;;10.85;73.87;98512.28;5091812;28;42950;-80
2022/02/15 09:30:07;;;;;;;2.90;2.60;;;;;;;10.98;70.76;98518.44;5107668;28;42343;-82
2022/02/15 09:32:36;;;;;;;4.33;2.53;;;;;;;11.30;70.21;98523.28;5091560;28;39012;-82
2022/02/15 09:35:04;;;;;;;3.10;2.57;;;;;;;12.33;68.22;98531.66;5090694;28;40883;-82
2022/02/15 09:37:31;;;;;;;3.57;2.67;;;;;;;13.22;64.59;98547.84;5108622;28;42098;-84
2022/02/15 09:40:00;;;;;;;3.10;2.20;;;;;;;13.83;61.97;98563.41;5090959;28;41124;-82
2022/02/15 09:42:30;;;;;;;2.70;2.50;;;;;;;13.95;61.25;98560.59;5109774;28;39717;-81
2022/02/15 09:44:59;;;;;;;4.20;2.90;;;;;;;13.80;60.31;98543.22;5090394;28;40855;-83
2022/02/15 09:47:28;;;;;;;2.73;2.30;;;;;;;13.77;59.73;98553.25;5091145;28;43890;-79
2022/02/15 09:49:55;;;;;;;3.27;2.80;;;;;;;13.65;60.21;98537.28;5107403;28;40785;-82
2022/02/15 09:52:24;;;;;;;3.40;2.37;;;;;;;13.62;60.29;98528.69;5091112;28;41191;-81
2022/02/15 09:54:55;;;;;;;3.80;2.13;;;;;;;13.65;59.77;98552.41;5124106;27;40419;-81
2022/02/15 09:57:23;;;;;;;4.10;2.80;;;;;;;13.58;59.28;98544.09;5142434;27;43541;-82
2022/02/15 09:59:51;;;;;;;3.73;2.57;;;;;;;13.81;59.02;98547.56;5107268;28;42962;-80
2022/02/15 10:02:24;;;;;;;2.30;2.10;;;;;;;13.98;58.77;98541.69;5108722;28;39842;-83
2022/02/15 10:04:56;;;;;;;2.30;2.10;;;;;;;14.09;58.34;98555.97;5108143;28;42563;-82
2022/02/15 10:07:24;;;;;;;2.50;2.30;;;;;;;14.14;58.02;98562.59;5091221;28;43626;-83
2022/02/15 10:09:54;;;;;;;3.00;2.43;;;;;;;14.37;56.78;98576.69;5123478;27;41034;-84
2022/02/15 10:12:24;;;;;;;3.10;1.97;;;;;;;14.12;56.09;98569.03;5090853;28;40420;-84
2022/02/15 10:14:55;;;;;;;2.73;2.23;;;;;;;14.44;56.55;98585.94;5107077;28;42142;-84
2022/02/15 10:17:25;;;;;;;2.90;2.00;;;;;;;14.37;55.84;98584.69;5090616;28;43037;-80
2022/02/15 10:19:54;;;;;;;1.73;1.63;;;;;;;14.25;56.04;98588.34;5086661;28;41255;-79
2022/02/15 10:22:22;;;;;;;2.60;2.20;;;;;;;14.31;55.70;98590.53;5094835;28;41280;-82
2022/02/15 10:24:52;;;;;;;2.93;2.40;;;;;;;14.24;54.76;98574.19;5076162;28;41446;-80
2022/02/15 10:27:25;;;;;;;2.57;2.33;;;;;;;15.07;54.70;98586.84;5077056;28;43270;-82
2022/02/15 10:29:55;;;;;;;2.17;1.73;;;;;;;16.56;51.63;98608.34;5093486;28;41080;-82
2022/02/15 10:32:24;;;;;;;2.23;1.77;;;;;;;16.03;50.72;98611.34;5077145;28;42049;-78
2022/02/15 10:34:56;;;;;;;0.93;0.93;;;;;;;15.41;50.45;98614.13;5076743;28;40593;-85
2022/02/15 10:37:26;;;;;;;1.20;1.10;;;;;;;15.06;52.04;98596.66;5077618;28;43952;-83
2022/02/15 10:39:57;;;;;;;0.80;0.80;;;;;;;14.96;53.64;98597.56;5127965;27;41643;-85
2022/02/15 10:42:26;;;;;;;0.90;0.90;;;;;;;14.85;53.42;98598.44;5077545;28;38932;-83
2022/02/15 10:44:58;;;;;;;0.80;0.80;;;;;;;14.53;54.18;98603.81;5076263;28;42188;-87
2022/02/15 10:47:28;;;;;;;0.70;0.70;;;;;;;14.40;54.83;98600.47;5076693;28;43866;-88
2022/02/15 10:50:00;;;;;;;0.60;0.60;;;;;;;14.03;54.34;98605.25;5076373;28;43084;-86
2022/02/15 10:52:28;;;;;;;0.83;0.70;;;;;;;13.91;54.57;98599.09;5076718;28;38931;-82
2022/02/15 10:54:57;;;;;;;0.70;0.70;;;;;;;13.83;55.18;98600.69;5093160;28;40093;-83
2022/02/15 10:57:25;;;;;;;0.70;0.70;;;;;;;13.85;55.33;98596.91;5076612;28;41788;-83
2022/02/15 10:59:54;;;;;;;0.73;0.73;;;;;;;15.09;53.08;98619.53;5076563;28;42497;-80
2022/02/15 11:02:25;;;;;;;1.00;0.87;;;;;;;14.91;51.94;98626.44;5115351;28;39712;-83
2022/02/15 11:04:54;;;;;;;1.67;0.90;;;;;;;16.96;48.96;98636.81;5093892;28;41967;-86
2022/02/15 11:07:24;;;;;;;1.00;0.90;;;;;;;17.36;46.97;98640.16;5093197;28;41909;-81
2022/02/15 11:10:02;;;;;;;0.80;0.80;;;;;;;17.30;47.27;98651.44;5092406;28;41303;-84
2022/02/15 11:12:46;;;;;;;1.10;1.00;;;;;;;17.06;47.93;98653.72;5090459;28;39934;-83
2022/02/15 11:15:13;;;;;;;1.20;1.10;;;;;;;16.62;48.78;98637.22;5072474;28;42703;-85
2022/02/15 11:17:49;;;;;;;1.00;0.97;;;;;;;16.19;48.51;98615.31;5056112;28;43702;-84
2022/02/15 11:20:18;;;;;;;1.40;1.30;;;;;;;16.13;48.61;98636.25;5078541;28;42167;-84
2022/02/15 11:22:50;;;;;;;1.47;1.03;;;;;;;17.48;46.75;98657.75;5093190;28;38666;-83
2022/02/15 11:25:29;;;;;;;1.40;1.30;;;;;;;17.06;46.72;98659.06;5093160;28;42259;-84
2022/02/15 11:27:57;;;;;;;0.77;0.77;;;;;;;16.58;47.62;98656.31;5076444;28;41608;-89
2022/02/15 11:30:28;;;;;;;1.10;1.00;;;;;;;16.27;47.60;98660.91;5093677;28;42516;-81
2022/02/15 11:33:06;;;;;;;0.87;0.87;;;;;;;15.85;48.07;98645.00;5092588;28;39062;-82
2022/02/15 11:35:34;;;;;;;1.63;0.83;;;;;;;15.55;48.49;98647.69;5071923;28;42106;-83
2022/02/15 11:38:13;;;;;;;1.13;1.10;;;;;;;15.24;49.85;98650.25;5073466;28;42756;-82
2022/02/15 11:40:41;;;;;;;0.80;0.67;;;;;;;14.80;50.79;98639.81;5064316;28;41266;-83
2022/02/15 11:43:10;;;;;;;1.40;1.00;;;;;;;14.58;51.53;98648.75;5092788;28;40401;-81
2022/02/15 11:45:41;;;;;;;0.93;0.90;;;;;;;14.23;51.72;98651.56;5075625;28;40831;-84
2022/02/15 11:48:10;;;;;;;1.10;0.90;;;;;;;13.89;52.99;98637.44;5109667;28;41816;-86
2022/02/15 11:50:44;;;;;;;0.90;0.80;;;;;;;13.57;54.07;98627.53;5071821;28;41049;-83
2022/02/15 11:53:13;;;;;;;1.73;1.20;;;;;;;13.32;55.56;98635.72;5082836;28;40977;-83
2022/02/15 11:55:41;;;;;;;1.23;1.07;;;;;;;12.91;57.47;98614.91;5094850;28;41694;-83
2022/02/15 11:58:09;;;;;;;1.00;0.90;;;;;;;12.42;58.21;98594.69;5092405;28;42831;-84
2022/02/15 12:00:38;;;;;;;0.93;0.90;;;;;;;12.32;59.22;98612.25;5072027;28;40980;-83
2022/02/15 12:03:06;;;;;;;1.47;1.00;;;;;;;12.13;59.80;98603.94;5073186;28;40100;-80
2022/02/15 12:05:37;;;;;;;1.10;1.00;;;;;;;11.91;59.64;98599.34;5072466;28;41703;-81
2022/02/15 12:08:05;;;;;;;0.97;0.87;;;;;;;11.92;60.05;98624.06;5068510;28;43425;-82
2022/02/15 12:10:38;;;;;;;0.97;0.90;;;;;;;11.79;59.07;98627.59;5099147;28;42061;-81
2022/02/15 12:13:13;;;;;;;0.90;0.90;;;;;;;11.71;59.48;98632.59;5092371;28;39397;-86
2022/02/15 12:15:40;;;;;;;1.07;1.00;;;;;;;11.57;59.23;98616.78;5102467;28;42724;-81
2022/02/15 12:18:08;;;;;;;0.83;0.83;;;;;;;11.75;59.41;98628.75;5112210;28;42783;-80
2022/02/15 12:20:36;;;;;;;1.17;1.07;;;;;;;12.02;58.66;98617.13;5112363;28;42320;-81
2022/02/15 12:23:04;;;;;;;1.33;1.10;;;;;;;12.27;58.57;98622.38;5095172;28;38915;-81
2022/02/15 12:26:07;;;;;;;2.97;1.20;;;;;;;12.88;57.21;98633.75;5095776;28;40667;-80
2022/02/15 12:28:34;;;;;;;1.10;0.90;;;;;;;13.42;56.11;98636.69;5097843;28;42442;-81
2022/02/15 12:31:02;;;;;;;1.00;1.00;;;;;;;13.66;55.38;98625.97;5073776;28;40958;-81
2022/02/15 12:33:36;;;;;;;1.43;1.10;;;;;;;13.75;54.59;98624.38;5092386;28;39947;-81
2022/02/15 12:36:05;;;;;;;1.00;1.00;;;;;;;13.81;53.97;98642.53;5073950;28;41158;-82
2022/02/15 12:38:37;;;;;;;1.00;1.00;;;;;;;13.60;53.86;98631.75;5091858;28;42680;-82
2022/02/15 12:41:15;;;;;;;1.13;0.90;;;;;;;13.53;54.34;98642.03;5091338;28;41066;-81
2022/02/15 12:43:42;;;;;;;1.00;1.00;;;;;;;13.43;54.55;98634.88;5101946;28;39579;-82
2022/02/15 12:46:11;;;;;;;0.80;0.80;;;;;;;13.35;54.85;98650.59;5089092;28;42240;-81
2022/02/15 12:48:38;;;;;;;1.40;1.00;;;;;;;13.22;55.10;98632.94;5067198;28;42314;-82
2022/02/15 12:51:06;;;;;;;0.90;0.90;;;;;;;12.99;54.81;98624.97;5072766;28;42387;-85
2022/02/15 12:53:35;;;;;;;1.20;1.10;;;;;;;13.07;56.14;98628.75;5072486;28;39108;-84
2022/02/15 12:56:05;;;;;;;1.20;1.10;;;;;;;13.63;55.96;98627.03;5070562;28;42134;-82
2022/02/15 12:58:45;;;;;;;1.27;1.10;;;;;;;14.06;55.03;98628.13;5071427;28;41785;-81
2022/02/15 13:01:14;;;;;;;2.13;1.43;;;;;;;15.64;53.15;98630.84;5066131;28;41532;-87
2022/02/15 13:03:45;;;;;;;1.07;1.03;;;;;;;16.41;50.51;98660.53;5087681;28;39688;-86
2022/02/15 13:06:13;;;;;;;1.87;1.30;;;;;;;17.19;47.43;98670.31;5072977;28;41004;-83
2022/02/15 13:08:46;;;;;;;1.20;1.10;;;;;;;18.80;45.71;98678.91;5073502;28;42261;-81
2022/02/15 13:11:15;;;;;;;1.10;1.00;;;;;;;20.87;41.45;98699.63;5065776;28;43657;-83
2022/02/15 13:13:48;;;;;;;1.53;1.00;;;;;;;21.38;39.00;98680.53;5071307;28;39067;-82
2022/02/15 13:16:15;;;;;;;2.03;1.00;;;;;;;20.77;39.92;98683.63;5086189;28;41541;-81
2022/02/15 13:18:45;;;;;;;1.20;1.10;;;;;;;21.28;38.11;98706.78;5072579;28;41907;-81
2022/02/15 13:21:14;;;;;;;1.33;1.00;;;;;;;21.25;37.36;98717.91;5090565;28;42464;-83
2022/02/15 13:23:55;;;;;;;1.00;1.00;;;;;;;20.17;38.56;98693.59;5089884;28;40035;-83
2022/02/15 13:26:30;;;;;;;1.40;1.30;;;;;;;19.04;39.96;98682.88;5072294;28;41201;-86
2022/02/15 13:29:00;;;;;;;1.20;1.10;;;;;;;18.13;41.52;98692.69;5073511;28;43253;-84
2022/02/15 13:31:27;;;;;;;1.13;1.03;;;;;;;17.44;42.06;98691.13;5073200;28;42675;-82
2022/02/15 13:33:56;;;;;;;1.03;0.93;;;;;;;17.49;42.71;98678.16;5069814;28;38903;-85
2022/02/15 13:36:32;;;;;;;0.87;0.80;;;;;;;17.10;42.63;98684.53;5073042;28;43347;-82
2022/02/15 13:39:00;;;;;;;1.23;1.00;;;;;;;16.50;43.44;98689.09;5073829;28;43025;-83
2022/02/15 13:41:28;;;;;;;1.47;0.87;;;;;;;15.90;43.73;98669.50;5094547;28;43283;-81
2022/02/15 13:44:02;;;;;;;0.73;0.73;;;;;;;15.44;44.74;98676.09;5128550;27;40748;-82
2022/02/15 13:46:32;;;;;;;1.10;1.00;;;;;;;15.14;45.49;98678.69;5073785;28;41866;-81
2022/02/15 13:49:01;;;;;;;1.20;0.87;;;;;;;14.64;45.73;98659.72;5096363;28;43631;-83
2022/02/15 13:51:30;;;;;;;0.77;0.77;;;;;;;14.40;45.55;98664.41;5078791;28;41285;-81
2022/02/15 13:53:58;;;;;;;1.00;0.80;;;;;;;14.26;46.39;98680.63;5072994;28;38905;-80
2022/02/15 13:56:26;;;;;;;0.87;0.70;;;;;;;14.06;46.39;98681.38;5093720;28;41835;-81
2022/02/15 13:58:54;;;;;;;0.83;0.80;;;;;;;13.73;47.24;98667.06;5093881;28;43698;-80
2022/02/15 14:01:23;;;;;;;0.90;0.90;;;;;;;13.44;48.29;98673.84;5093449;28;42109;-82
2022/02/15 14:03:51;;;;;;;0.83;0.83;;;;;;;12.98;51.57;98666.66;5093487;28;40750;-85
2022/02/15 14:06:19;;;;;;;1.03;0.67;;;;;;;12.54;53.85;98656.69;5076398;28;41580;-87
2022/02/15 14:08:49;;;;;;;1.00;0.70;;;;;;;12.18;56.48;98649.59;5076476;28;44402;-86
2022/02/15 14:11:17;;;;;;;0.80;0.80;;;;;;;11.94;57.41;98640.75;5091842;28;42429;-87
2022/02/15 14:13:45;;;;;;;1.73;1.20;;;;;;;11.75;58.09;98626.09;5076894;28;38752;-86
2022/02/15 14:16:13;;;;;;;1.10;0.90;;;;;;;11.67;58.19;98628.44;5076161;28;40822;-85
2022/02/15 14:18:42;;;;;;;1.83;1.13;;;;;;;11.95;57.63;98597.31;5076778;28;42330;-82
2022/02/15 14:21:11;;;;;;;1.03;0.70;;;;;;;13.28;57.41;98632.44;5076002;28;42482;-85
2022/02/15 14:23:38;;;;;;;1.00;0.90;;;;;;;14.38;54.85;98643.19;5076638;28;38898;-83
2022/02/15 14:26:07;;;;;;;0.70;0.70;;;;;;;16.12;51.71;98669.28;5076306;28;40850;-82
2022/02/15 14:28:37;;;;;;;1.17;0.70;;;;;;;17.32;49.15;98660.16;5060647;28;43529;-86
2022/02/15 14:31:06;;;;;;;1.60;0.70;;;;;;;18.03;46.95;98682.00;5074035;28;41402;-84
2022/02/15 14:33:33;;;;;;;0.70;0.70;;;;;;;18.04;43.80;98710.50;5076420;28;40680;-83
2022/02/15 14:36:03;;;;;;;1.00;0.80;;;;;;;17.62;43.32;98704.66;5075889;28;40668;-82
2022/02/15 14:38:35;;;;;;;0.50;0.50;;;;;;;17.72;44.50;98705.50;5076294;28;42159;-82
2022/02/15 14:41:02;;;;;;;1.30;0.60;;;;;;;17.76;43.38;98727.50;5075840;28;41209;-82
2022/02/15 14:43:32;;;;;;;0.83;0.80;;;;;;;17.94;43.37;98715.03;5093333;28;40663;-83
2022/02/15 14:46:00;;;;;;;0.67;0.67;;;;;;;17.25;42.65;98696.53;5071641;28;40776;-83
2022/02/15 14:48:27;;;;;;;0.63;0.63;;;;;;;16.69;43.81;98734.59;5075485;28;41619;-82
2022/02/15 14:50:55;;;;;;;1.10;0.50;;;;;;;15.83;44.43;98727.06;5075464;28;42618;-84
2022/02/15 14:53:24;;;;;;;0.50;0.50;;;;;;;15.21;45.55;98703.00;5074262;28;38923;-84
2022/02/15 14:55:52;;;;;;;0.77;0.77;;;;;;;14.73;46.94;98685.63;5074829;28;42417;-83
2022/02/15 14:58:20;;;;;;;0.60;0.60;;;;;;;14.69;47.82;98702.88;5092590;28;43101;-82
2022/02/15 15:00:47;;;;;;;0.83;0.63;;;;;;;14.60;47.84;98692.94;5093630;28;42277;-82
2022/02/15 15:03:15;;;;;;;0.50;0.50;;;;;;;14.45;48.15;98694.19;5075576;28;39586;-81
2022/02/15 15:05:44;;;;;;;0.60;0.60;;;;;;;14.22;48.74;98665.84;5091749;28;42561;-80
2022/02/15 15:08:11;;;;;;;0.77;0.77;;;;;;;14.09;49.13;98665.16;5074877;28;43292;-81
2022/02/15 15:10:43;;;;;;;0.67;0.67;;;;;;;13.85;49.36;98670.59;5089308;28;42333;-82
2022/02/15 15:13:11;;;;;;;1.10;1.00;;;;;;;13.45;49.79;98672.88;5075622;28;39074;-81
2022/02/15 15:15:38;;;;;;;1.37;0.73;;;;;;;13.15;50.11;98676.91;5075569;28;42066;-82
2022/02/15 15:18:06;;;;;;;0.50;0.50;;;;;;;12.93;50.36;98674.13;5092407;28;44658;-83
2022/02/15 15:20:34;;;;;;;0.70;0.70;;;;;;;12.78;50.98;98664.63;5062786;28;42897;-82
2022/02/15 15:23:01;;;;;;;0.93;0.67;;;;;;;12.49;51.01;98635.75;5075037;28;40296;-82
2022/02/15 15:25:29;;;;;;;0.60;0.60;;;;;;;12.49;51.79;98643.72;5092173;28;42050;-81
2022/02/15 15:27:58;;;;;;;1.00;0.70;;;;;;;12.50;51.75;98666.66;5075285;28;42420;-80
2022/02/15 15:30:26;;;;;;;0.67;0.67;;;;;;;12.41;51.51;98677.13;5089981;28;41339;-84
2022/02/15 15:32:53;;;;;;;2.07;0.67;;;;;;;12.24;52.52;98671.22;5075531;28;38958;-83
2022/02/15 15:35:20;;;;;;;0.80;0.77;;;;;;;12.04;53.52;98663.00;5074929;28;41247;-85
2022/02/15 15:37:48;;;;;;;1.57;0.50;;;;;;;11.91;54.39;98651.56;5092190;28;42699;-85
2022/02/15 15:40:19;;;;;;;0.93;0.80;;;;;;;11.73;54.36;98649.25;5072625;28;40965;-80
2022/02/15 15:42:49;;;;;;;0.80;0.80;;;;;;;11.47;55.28;98621.03;5075791;28;39122;-83
2022/02/15 15:45:19;;;;;;;0.53;0.53;;;;;;;11.35;55.78;98628.06;5074701;28;42465;-85
2022/02/15 15:47:46;;;;;;;0.60;0.60;;;;;;;11.26;56.26;98641.06;5075249;28;42699;-83
2022/02/15 15:50:17;;;;;;;0.80;0.80;;;;;;;11.23;56.45;98651.91;5073682;28;42173;-83
2022/02/15 15:52:45;;;;;;;0.97;0.50;;;;;;;11.11;56.68;98632.38;5074784;28;40199;-82
2022/02/15 15:55:14;;;;;;;0.67;0.67;;;;;;;11.08;57.43;98643.19;5074721;28;40693;-80
2022/02/15 15:57:41;;;;;;;1.60;0.60;;;;;;;10.97;57.26;98654.50;5091917;28;42771;-80
2022/02/15 16:00:10;;;;;;;0.60;0.60;;;;;;;10.85;57.86;98647.41;5090808;28;41915;-80
2022/02/15 16:02:41;;;;;;;2.53;0.90;;;;;;;10.74;58.51;98649.91;5089765;28;40621;-82
2022/02/15 16:05:09;;;;;;;0.60;0.60;;;;;;;10.55;58.30;98633.53;5091195;28;41716;-85
2022/02/15 16:07:37;;;;;;;0.80;0.80;;;;;;;10.49;58.13;98655.97;5075108;28;42491;-83
2022/02/15 16:10:05;;;;;;;0.63;0.50;;;;;;;10.38;58.39;98659.31;5072477;28;44435;-82
2022/02/15 16:12:32;;;;;;;1.37;0.70;;;;;;;10.27;58.22;98634.47;5041800;28;39273;-82
2022/02/15 16:15:00;;;;;;;0.80;0.80;;;;;;;10.31;58.95;98644.78;5073439;28;41113;-81
2022/02/15 16:17:28;;;;;;;1.10;0.93;;;;;;;10.25;58.79;98666.34;5125403;27;43727;-79
2022/02/15 16:19:57;;;;;;;0.67;0.67;;;;;;;10.13;58.67;98666.25;5090333;28;43250;-81
2022/02/15 16:22:25;;;;;;;1.87;0.60;;;;;;;9.86;59.05;98647.69;5074546;28;39236;-80
2022/02/15 16:24:52;;;;;;;0.60;0.60;;;;;;;9.83;58.88;98663.72;5090302;28;41503;-79
2022/02/15 16:27:20;;;;;;;2.43;0.70;;;;;;;9.56;59.20;98640.69;5073561;28;42649;-81
2022/02/15 16:29:47;;;;;;;1.60;0.80;;;;;;;9.50;59.19;98651.66;5069408;28;42722;-80
2022/02/15 16:32:15;;;;;;;2.10;0.60;;;;;;;9.50;59.29;98672.81;5074189;28;38823;-80
2022/02/15 16:34:44;;;;;;;1.00;0.77;;;;;;;9.31;59.42;98661.66;5073523;28;41920;-82
2022/02/15 16:37:13;;;;;;;1.67;0.87;;;;;;;9.18;59.97;98647.47;5090872;28;41757;-83
2022/02/15 16:39:41;;;;;;;0.83;0.77;;;;;;;9.13;59.91;98662.75;5091867;28;42130;-83
2022/02/15 16:42:09;;;;;;;2.57;0.73;;;;;;;8.98;60.27;98660.09;5073996;28;39197;-81
2022/02/15 16:44:38;;;;;;;1.50;1.30;;;;;;;8.85;60.38;98659.09;5090342;28;42638;-82
2022/02/15 16:47:08;;;;;;;0.97;0.87;;;;;;;8.74;60.75;98671.22;5058780;28;43196;-79
2022/02/15 16:49:35;;;;;;;1.10;1.00;;;;;;;8.14;61.01;98589.34;5090674;28;42118;-79
2022/02/15 16:52:03;;;;;;;0.97;0.73;;;;;;;8.51;61.34;98662.00;5090402;28;38911;-79
2022/02/15 16:54:32;;;;;;;0.60;0.60;;;;;;;8.39;61.52;98654.78;5090291;28;42372;-78
2022/02/15 16:57:01;;;;;;;1.67;0.93;;;;;;;8.28;61.49;98661.47;5073372;28;41666;-79
2022/02/15 16:59:29;;;;;;;0.80;0.80;;;;;;;8.20;62.05;98654.94;5091098;28;41869;-81
2022/02/15 17:01:56;;;;;;;1.13;0.83;;;;;;;8.09;62.26;98652.03;5090879;28;40140;-82
2022/02/15 17:04:24;;;;;;;1.23;1.10;;;;;;;7.94;62.80;98643.19;5125701;27;42927;-83
2022/02/15 17:06:51;;;;;;;0.83;0.80;;;;;;;7.96;63.32;98656.28;5089776;28;42834;-80
2022/02/15 17:09:21;;;;;;;1.33;0.90;;;;;;;7.78;63.35;98634.44;5072746;28;41077;-81
2022/02/15 17:11:50;;;;;;;1.37;0.90;;;;;;;7.80;63.80;98645.72;5073353;28;41976;-80
2022/02/15 17:14:17;;;;;;;1.40;0.73;;;;;;;7.72;64.47;98650.56;5072894;28;40798;-81
2022/02/15 17:16:45;;;;;;;1.50;1.10;;;;;;;7.58;64.52;98641.63;5072735;28;42190;-82
2022/02/15 17:19:12;;;;;;;1.50;0.90;;;;;;;7.62;64.72;98662.56;5073411;28;41197;-81
2022/02/15 17:21:40;;;;;;;1.40;1.13;;;;;;;7.57;64.52;98670.69;5076617;28;40211;-82
2022/02/15 17:24:08;;;;;;;2.13;1.07;;;;;;;7.46;64.67;98667.78;5077868;28;40676;-84
2022/02/15 17:26:36;;;;;;;0.87;0.87;;;;;;;7.09;64.60;98624.06;5090043;28;42698;-84
2022/02/15 17:29:06;;;;;;;1.17;0.83;;;;;;;7.38;64.73;98681.38;5076638;28;42242;-86
2022/02/15 17:31:35;;;;;;;1.00;0.90;;;;;;;7.02;65.38;98625.34;5075840;28;41373;-84
2022/02/15 17:34:05;;;;;;;0.93;0.80;;;;;;;7.03;65.33;98633.16;5076843;28;40958;-84
2022/02/15 17:36:32;;;;;;;1.90;1.40;;;;;;;7.22;65.28;98659.38;5076361;28;41619;-81
2022/02/15 17:39:00;;;;;;;1.67;1.23;;;;;;;7.14;65.31;98659.78;5095375;28;43552;-81
2022/02/15 17:41:28;;;;;;;1.23;1.03;;;;;;;7.04;65.37;98649.81;5076360;28;38969;-80
2022/02/15 17:43:55;;;;;;;3.03;1.23;;;;;;;7.03;65.95;98658.63;5076398;28;40905;-84
2022/02/15 17:46:24;;;;;;;1.40;1.10;;;;;;;6.92;66.40;98646.03;5076473;28;42286;-83
2022/02/15 17:48:52;;;;;;;1.43;1.07;;;;;;;6.99;66.74;98646.56;5103330;28;42060;-83
2022/02/15 17:51:19;;;;;;;2.83;1.03;;;;;;;6.96;66.74;98646.69;5076362;28;38829;-81
2022/02/15 17:53:47;;;;;;;1.53;1.07;;;;;;;6.84;66.96;98641.13;5076927;28;41533;-84
2022/02/15 17:56:15;;;;;;;5.10;1.50;;;;;;;6.57;67.24;98610.09;5076821;28;43680;-87
2022/02/15 17:58:42;;;;;;;1.60;1.17;;;;;;;6.85;66.95;98663.91;5091406;28;42263;-80
2022/02/15 18:01:10;;;;;;;1.53;1.43;;;;;;;6.72;66.98;98635.63;5076568;28;41336;-80
2022/02/15 18:03:39;;;;;;;1.03;1.00;;;;;;;6.79;67.37;98651.06;5092972;28;42665;-78
2022/02/15 18:06:06;;;;;;;2.30;1.30;;;;;;;6.70;66.93;98634.88;5093362;28;43541;-80
2022/02/15 18:08:34;;;;;;;1.83;1.20;;;;;;;6.68;66.38;98637.56;5095316;28;41198;-79
2022/02/15 18:11:01;;;;;;;1.20;1.10;;;;;;;6.65;66.60;98643.00;5094205;28;38785;-79
2022/02/15 18:13:29;;;;;;;1.37;1.03;;;;;;;6.70;66.95;98662.03;5093254;28;42543;-79
2022/02/15 18:15:56;;;;;;;3.93;1.30;;;;;;;6.67;66.83;98662.22;5078352;28;43076;-80
2022/02/15 18:18:23;;;;;;;2.30;1.10;;;;;;;6.65;66.85;98674.59;5077339;28;42003;-79
2022/02/15 18:20:52;;;;;;;1.93;1.30;;;;;;;6.45;66.60;98645.75;5105475;28;40874;-78
2022/02/15 18:23:20;;;;;;;2.23;1.50;;;;;;;6.62;66.32;98680.00;5092987;28;42853;-79
2022/02/15 18:25:47;;;;;;;1.43;1.20;;;;;;;6.45;66.53;98666.78;5076190;28;41907;-80
2022/02/15 18:28:15;;;;;;;1.97;1.40;;;;;;;6.42;66.42;98667.81;5076418;28;42310;-78
2022/02/15 18:30:43;;;;;;;2.13;1.23;;;;;;;6.49;66.34;98684.16;5099386;28;41039;-80
2022/02/15 18:33:11;;;;;;;1.47;1.37;;;;;;;6.32;66.35;98668.31;5093267;28;41765;-79
2022/02/15 18:35:38;;;;;;;3.00;1.20;;;;;;;6.42;66.74;98682.75;5094483;28;43649;-79
2022/02/15 18:38:07;;;;;;;2.13;1.57;;;;;;;6.38;66.76;98694.34;5094355;28;42476;-79
2022/02/15 18:40:35;;;;;;;1.57;1.20;;;;;;;6.29;66.75;98686.91;5093048;28;39964;-79
2022/02/15 18:43:04;;;;;;;1.40;1.23;;;;;;;6.15;66.89;98678.81;5093614;28;41893;-79
2022/02/15 18:45:32;;;;;;;3.43;1.37;;;;;;;6.19;66.84;98690.88;5076309;28;42045;-78
2022/02/15 18:47:59;;;;;;;2.53;1.40;;;;;;;6.15;67.17;98698.06;5076208;28;41319;-79
2022/02/15 18:50:29;;;;;;;1.97;1.60;;;;;;;5.99;67.43;98674.25;5075576;28;38750;-79
2022/02/15 18:52:56;;;;;;;2.40;1.17;;;;;;;6.09;67.12;98690.44;5099851;28;42526;-79
2022/02/15 18:55:25;;;;;;;1.37;1.27;;;;;;;6.08;67.35;98694.84;5075983;28;43462;-79
2022/02/15 18:57:53;;;;;;;1.33;1.23;;;;;;;6.05;67.55;98699.44;5092827;28;42168;-79
2022/02/15 19:00:21;;;;;;;1.50;1.07;;;;;;;6.00;67.75;98691.75;5110005;28;39243;-79
2022/02/15 19:02:48;;;;;;;1.47;1.07;;;;;;;5.87;67.76;98680.06;5075724;28;41231;-79
2022/02/15 19:05:16;;;;;;;2.07;1.40;;;;;;;5.94;67.52;98699.91;5098305;28;43413;-79
2022/02/15 19:07:44;;;;;;;1.60;1.07;;;;;;;5.91;67.64;98702.69;5092317;28;42363;-80
2022/02/15 19:10:11;;;;;;;1.27;1.13;;;;;;;5.90;67.82;98711.50;5078178;28;39070;-79
2022/02/15 19:12:40;;;;;;;1.47;1.03;;;;;;;5.86;67.98;98703.78;5078685;28;40772;-78
2022/02/15 19:15:10;;;;;;;1.63;1.40;;;;;;;5.85;67.66;98717.84;5091902;28;42737;-78
2022/02/15 19:17:38;;;;;;;1.63;0.97;;;;;;;5.74;67.72;98692.91;5092429;28;42369;-78
2022/02/15 19:20:08;;;;;;;1.90;0.90;;;;;;;5.79;67.70;98703.22;5075680;28;40047;-80
2022/02/15 19:22:36;;;;;;;2.43;1.17;;;;;;;5.77;68.22;98705.06;5088641;28;41848;-79
2022/02/15 19:25:05;;;;;;;2.63;1.30;;;;;;;5.68;67.90;98694.97;5074304;28;43230;-80
2022/02/15 19:27:33;;;;;;;1.50;1.10;;;;;;;5.68;67.81;98694.97;5107945;28;41293;-82
2022/02/15 19:30:02;;;;;;;0.80;0.80;;;;;;;5.71;68.03;98714.06;5075273;28;38994;-79
2022/02/15 19:32:30;;;;;;;2.17;1.10;;;;;;;5.63;67.66;98696.94;5092149;28;41765;-80